Time;durP1;ratioP1;P1;durP2;ratioP2;P2;SDS_P1;SDS_P2;PMS_P1;PMS_P2;Temp;Humidity;BMP_temperature;BMP_pressure;BME280_temperature;BME280_humidity;BME280_pressure;Samples;Min_cycle;Max_cycle;Signal;HPM_P1;HPM_P2
2022/03/19 00:02:11;;;;;;;23.80;5.13;;;22.20;99.90;;;;;;4916995;29;20035;-70
2022/03/19 00:04:38;;;;;;;19.15;4.43;;;22.30;99.90;;;;;;4916324;29;20088;-71
2022/03/19 00:07:06;;;;;;;19.05;3.67;;;22.20;99.90;;;;;;4916603;29;20024;-70
2022/03/19 00:09:34;;;;;;;20.23;3.47;;;22.30;99.90;;;;;;4916197;29;20095;-71
2022/03/19 00:12:02;;;;;;;17.70;3.65;;;22.30;99.90;;;;;;4916934;29;20519;-70
2022/03/19 00:14:29;;;;;;;21.50;4.60;;;22.20;99.90;;;;;;4916414;29;20111;-71
2022/03/19 00:16:57;;;;;;;20.67;3.83;;;22.20;99.90;;;;;;4916866;29;20035;-74
2022/03/19 00:19:25;;;;;;;22.48;4.80;;;22.20;99.90;;;;;;4916299;29;20052;-71
2022/03/19 00:21:52;;;;;;;17.85;4.90;;;22.00;99.90;;;;;;4916278;29;20020;-72
2022/03/19 00:24:19;;;;;;;20.40;5.13;;;21.90;99.90;;;;;;4926945;29;20088;-69
2022/03/19 00:26:47;;;;;;;21.40;6.28;;;21.80;99.90;;;;;;4935793;29;20032;-70
2022/03/19 00:29:14;;;;;;;23.00;5.75;;;21.70;99.90;;;;;;4924220;29;20437;-69
2022/03/19 00:31:41;;;;;;;22.13;7.35;;;21.70;99.90;;;;;;4916549;29;20043;-72
2022/03/19 00:34:09;;;;;;;19.20;4.70;;;21.70;99.90;;;;;;4916090;29;20454;-74
2022/03/19 00:36:36;;;;;;;20.27;4.82;;;21.70;99.90;;;;;;4916556;29;20469;-73
2022/03/19 00:39:03;;;;;;;19.77;4.18;;;21.90;99.90;;;;;;4915797;29;20477;-70
2022/03/19 00:41:31;;;;;;;19.80;4.10;;;21.90;99.90;;;;;;4916596;29;20020;-70
2022/03/19 00:43:58;;;;;;;22.05;4.95;;;21.90;99.90;;;;;;4916272;29;20030;-70
2022/03/19 00:46:26;;;;;;;13.23;3.20;;;21.80;99.90;;;;;;4899283;29;20068;-69
2022/03/19 00:48:53;;;;;;;16.40;4.50;;;21.60;99.90;;;;;;4916387;29;20530;-68
2022/03/19 00:51:20;;;;;;;19.85;4.93;;;21.50;99.90;;;;;;4916142;29;20114;-70
2022/03/19 00:53:47;;;;;;;19.67;4.85;;;21.40;99.90;;;;;;4916173;29;20020;-69
2022/03/19 00:56:15;;;;;;;27.63;9.00;;;21.30;99.90;;;;;;4916029;29;20035;-70
2022/03/19 00:58:42;;;;;;;22.98;5.93;;;21.30;99.90;;;;;;4915870;29;20028;-69
2022/03/19 01:01:09;;;;;;;16.50;5.72;;;21.30;99.90;;;;;;4915907;29;20035;-71
2022/03/19 01:03:37;;;;;;;18.27;5.25;;;21.20;99.90;;;;;;4915936;29;20020;-69
2022/03/19 01:06:04;;;;;;;19.23;6.40;;;21.30;99.90;;;;;;4916051;29;20035;-71
2022/03/19 01:08:31;;;;;;;18.98;4.53;;;21.40;99.90;;;;;;4915753;29;20028;-70
2022/03/19 01:10:59;;;;;;;15.73;5.15;;;21.40;99.90;;;;;;4915936;29;20036;-69
2022/03/19 01:13:26;;;;;;;14.98;5.07;;;21.40;99.90;;;;;;4915930;29;20028;-70
2022/03/19 01:15:53;;;;;;;15.70;5.18;;;21.40;99.90;;;;;;4916008;29;20016;-69
2022/03/19 01:18:21;;;;;;;22.45;6.75;;;21.40;99.90;;;;;;4915870;29;20052;-71
2022/03/19 01:20:48;;;;;;;16.85;5.22;;;21.40;99.90;;;;;;4915510;29;20099;-70
2022/03/19 01:23:15;;;;;;;20.00;5.80;;;21.30;99.90;;;;;;4915212;29;20111;-71
2022/03/19 01:25:43;;;;;;;21.25;5.63;;;21.40;99.90;;;;;;4915573;29;20056;-71
2022/03/19 01:28:10;;;;;;;17.23;5.75;;;21.40;99.90;;;;;;4918295;29;20031;-70
2022/03/19 01:30:37;;;;;;;20.35;6.63;;;21.50;99.90;;;;;;4934752;29;20048;-69
2022/03/19 01:33:04;;;;;;;18.77;3.90;;;21.60;99.90;;;;;;4933586;29;20115;-68
2022/03/19 01:35:32;;;;;;;17.95;4.95;;;21.70;99.90;;;;;;4915621;29;20087;-70
2022/03/19 01:38:00;;;;;;;23.20;5.68;;;21.90;99.90;;;;;;4898190;29;20031;-72
2022/03/19 01:40:27;;;;;;;22.73;5.28;;;22.10;99.90;;;;;;4915603;29;20115;-70
2022/03/19 01:42:54;;;;;;;21.83;4.05;;;22.20;99.90;;;;;;4915045;29;20036;-73
2022/03/19 01:45:24;;;;;;;18.08;2.70;;;22.40;99.90;;;;;;4915932;29;20496;-69
2022/03/19 01:47:53;;;;;;;21.00;4.85;;;22.40;99.90;;;;;;4915556;29;20103;-70
2022/03/19 01:50:22;;;;;;;26.65;7.93;;;22.40;99.90;;;;;;4918564;29;20025;-69
2022/03/19 01:52:50;;;;;;;24.05;5.03;;;22.30;99.90;;;;;;4919473;29;20024;-69
2022/03/19 01:55:21;;;;;;;25.10;6.70;;;22.20;99.90;;;;;;4919514;29;20016;-71
2022/03/19 01:57:49;;;;;;;19.08;6.15;;;22.10;99.90;;;;;;4919418;29;20382;-71
2022/03/19 02:00:22;;;;;;;18.27;5.07;;;22.00;99.90;;;;;;4919258;29;20480;-73
2022/03/19 02:02:51;;;;;;;24.48;5.07;;;22.00;99.90;;;;;;4919382;29;20409;-72
2022/03/19 02:05:21;;;;;;;26.40;6.15;;;21.90;99.90;;;;;;4919362;29;20032;-72
2022/03/19 02:07:49;;;;;;;21.35;5.10;;;22.00;99.90;;;;;;4919021;29;20020;-70
2022/03/19 02:10:18;;;;;;;30.73;4.97;;;22.00;99.90;;;;;;4919137;29;20044;-70
2022/03/19 02:12:46;;;;;;;26.95;4.75;;;22.10;99.90;;;;;;4919246;29;20059;-69
2022/03/19 02:15:15;;;;;;;22.90;3.53;;;22.20;99.90;;;;;;4919260;29;20028;-70
2022/03/19 02:17:43;;;;;;;23.50;4.20;;;22.30;99.90;;;;;;4918973;29;20052;-70
2022/03/19 02:20:11;;;;;;;19.65;4.85;;;22.30;99.90;;;;;;4918910;29;20064;-70
2022/03/19 02:22:39;;;;;;;20.17;4.03;;;22.20;99.90;;;;;;4918868;29;20035;-72
2022/03/19 02:25:52;;;;;;;27.42;5.32;;;22.20;99.90;;;;;;4919030;29;20024;-71
2022/03/19 02:27:54;;;;;;;23.20;4.75;;;22.20;99.90;;;;;;4908513;29;20108;-70
2022/03/19 02:30:21;;;;;;;21.60;3.65;;;22.10;99.90;;;;;;4901874;29;20395;-69
2022/03/19 02:32:51;;;;;;;22.50;3.95;;;22.10;99.90;;;;;;4902254;29;20729;-71
2022/03/19 02:35:20;;;;;;;20.55;4.85;;;22.10;99.90;;;;;;4918900;29;20028;-70
2022/03/19 02:37:49;;;;;;;22.52;4.70;;;22.00;99.90;;;;;;4918953;29;20034;-72
2022/03/19 02:40:21;;;;;;;21.95;5.45;;;22.10;99.90;;;;;;4918736;29;20024;-72
2022/03/19 02:42:50;;;;;;;18.30;3.63;;;22.10;99.90;;;;;;4918741;29;20477;-70
2022/03/19 02:45:19;;;;;;;23.10;5.85;;;22.00;99.90;;;;;;4901540;29;20028;-69
2022/03/19 02:47:58;;;;;;;17.58;3.90;;;22.00;99.90;;;;;;4918600;29;20024;-69
2022/03/19 02:50:33;;;;;;;17.23;2.65;;;22.00;99.90;;;;;;4918541;29;20499;-69
2022/03/19 02:53:03;;;;;;;23.45;5.63;;;22.00;99.90;;;;;;4918505;29;20035;-71
2022/03/19 02:55:35;;;;;;;17.50;3.95;;;22.10;99.90;;;;;;4918378;29;20020;-70
2022/03/19 02:58:03;;;;;;;21.38;5.47;;;22.20;99.90;;;;;;4917950;29;20025;-74
2022/03/19 03:00:31;;;;;;;24.02;5.18;;;22.30;99.90;;;;;;4917084;29;20023;-68
2022/03/19 03:02:59;;;;;;;21.73;3.72;;;22.60;99.90;;;;;;4926770;29;20110;-70
2022/03/19 03:05:26;;;;;;;22.95;5.03;;;22.60;99.90;;;;;;4926114;29;20466;-70
2022/03/19 03:07:53;;;;;;;17.38;3.17;;;22.80;99.90;;;;;;4924489;29;20421;-69
2022/03/19 03:10:21;;;;;;;21.02;4.93;;;22.90;99.90;;;;;;4926355;29;20512;-74
2022/03/19 03:12:48;;;;;;;20.17;4.50;;;22.90;99.90;;;;;;4926321;29;20425;-72
2022/03/19 03:15:15;;;;;;;17.08;4.05;;;23.00;99.90;;;;;;4927543;29;20028;-74
2022/03/19 03:17:43;;;;;;;21.05;4.60;;;23.50;99.90;;;;;;4907594;29;20032;-70
2022/03/19 03:20:10;;;;;;;14.43;4.35;;;23.80;99.90;;;;;;4925903;29;20022;-70
2022/03/19 03:22:42;;;;;;;19.60;3.60;;;24.00;99.90;;;;;;4926777;29;20056;-70
2022/03/19 03:25:10;;;;;;;19.70;3.67;;;23.90;99.90;;;;;;4925539;29;20020;-73
2022/03/19 03:27:38;;;;;;;22.50;3.10;;;24.40;99.90;;;;;;4925028;29;20107;-76
2022/03/19 03:30:06;;;;;;;17.90;3.47;;;24.90;99.90;;;;;;4924963;29;20460;-72
2022/03/19 03:32:33;;;;;;;17.42;2.80;;;24.90;99.70;;;;;;4925491;29;20098;-74
2022/03/19 03:35:01;;;;;;;17.20;2.72;;;24.70;99.30;;;;;;4927400;29;20039;-73
2022/03/19 03:37:28;;;;;;;15.77;3.25;;;24.40;99.90;;;;;;4925472;29;20028;-74
2022/03/19 03:39:55;;;;;;;17.52;3.45;;;24.00;99.90;;;;;;4925276;29;20028;-73
2022/03/19 03:42:22;;;;;;;17.77;3.85;;;23.80;99.90;;;;;;4926668;29;20024;-68
2022/03/19 03:44:54;;;;;;;16.77;2.47;;;23.60;99.90;;;;;;4923976;29;20024;-70
2022/03/19 03:47:21;;;;;;;14.52;2.83;;;23.50;99.90;;;;;;4926807;29;20376;-74
2022/03/19 03:49:48;;;;;;;15.63;4.38;;;23.50;99.90;;;;;;4925156;29;20108;-73
2022/03/19 03:52:16;;;;;;;13.27;4.15;;;23.30;99.90;;;;;;4907703;29;20020;-72
2022/03/19 03:54:43;;;;;;;13.95;4.45;;;23.30;99.90;;;;;;4926421;29;20028;-73
2022/03/19 03:57:10;;;;;;;19.15;5.10;;;23.30;99.90;;;;;;4926754;29;20030;-71
2022/03/19 03:59:38;;;;;;;17.77;3.70;;;23.20;99.90;;;;;;4925596;29;20032;-72
2022/03/19 04:02:05;;;;;;;15.20;3.00;;;23.20;99.90;;;;;;4926423;29;20400;-73
2022/03/19 04:04:32;;;;;;;19.08;2.63;;;23.10;99.90;;;;;;4925823;29;20533;-70
2022/03/19 04:07:00;;;;;;;18.50;3.80;;;23.00;99.90;;;;;;4924371;29;20043;-72
2022/03/19 04:09:27;;;;;;;16.58;4.35;;;23.20;99.90;;;;;;4928075;29;20083;-76
2022/03/19 04:11:54;;;;;;;16.58;3.20;;;23.60;99.90;;;;;;4923951;29;20077;-71
2022/03/19 04:14:21;;;;;;;19.35;4.03;;;23.90;99.90;;;;;;4925332;29;20019;-71
2022/03/19 04:16:49;;;;;;;18.80;4.60;;;24.00;99.90;;;;;;4924827;29;20024;-71
2022/03/19 04:19:16;;;;;;;15.68;3.13;;;24.00;99.90;;;;;;4929327;29;20079;-69
2022/03/19 04:21:43;;;;;;;13.77;4.38;;;23.90;99.90;;;;;;4927420;29;20473;-72
2022/03/19 04:24:11;;;;;;;15.10;3.33;;;23.80;99.90;;;;;;4925461;29;20487;-70
2022/03/19 04:26:38;;;;;;;25.98;6.63;;;23.70;99.70;;;;;;4924319;29;20499;-71
2022/03/19 04:29:05;;;;;;;10.25;2.90;;;23.70;99.90;;;;;;4924142;29;20039;-71
2022/03/19 04:31:32;;;;;;;17.50;3.58;;;23.90;99.90;;;;;;4925202;29;20108;-71
2022/03/19 04:34:00;;;;;;;16.90;4.00;;;24.00;99.90;;;;;;4924277;29;20176;-70
2022/03/19 04:36:30;;;;;;;14.98;3.53;;;24.10;99.00;;;;;;4924032;29;20024;-71
2022/03/19 04:39:05;;;;;;;15.30;3.80;;;24.10;99.70;;;;;;4924169;29;20031;-71
2022/03/19 04:41:34;;;;;;;23.88;4.47;;;24.30;99.10;;;;;;4920679;29;20068;-71
2022/03/19 04:44:06;;;;;;;16.48;5.00;;;24.10;98.30;;;;;;4916608;29;20024;-70
2022/03/19 04:46:34;;;;;;;12.90;4.03;;;23.90;98.80;;;;;;4916456;29;20032;-70
2022/03/19 04:49:01;;;;;;;13.65;2.83;;;23.70;98.50;;;;;;4916216;29;20016;-70
2022/03/19 04:51:39;;;;;;;16.80;4.10;;;23.50;98.80;;;;;;4916541;29;20072;-69
2022/03/19 04:54:06;;;;;;;19.38;4.70;;;23.40;98.80;;;;;;4916438;29;20025;-70
2022/03/19 04:56:34;;;;;;;13.48;2.50;;;23.40;99.20;;;;;;4916014;29;20020;-70
2022/03/19 04:59:03;;;;;;;16.60;3.20;;;23.40;98.80;;;;;;4916041;29;20023;-71
2022/03/19 05:01:32;;;;;;;13.88;3.28;;;23.40;98.80;;;;;;4916174;29;20485;-71
2022/03/19 05:04:00;;;;;;;16.73;2.90;;;23.40;98.90;;;;;;4916389;29;20024;-71
2022/03/19 05:06:27;;;;;;;19.02;3.25;;;23.40;99.00;;;;;;4915941;29;20024;-71
2022/03/19 05:11:40;;;;;;;11.35;3.08;;;23.50;99.00;;;;;;4915250;29;20092;-70
2022/03/19 05:14:08;;;;;;;16.45;4.25;;;23.40;98.60;;;;;;4915383;29;20027;-71
2022/03/19 05:16:36;;;;;;;12.88;3.53;;;23.20;98.70;;;;;;4915900;29;20076;-74
2022/03/19 05:19:03;;;;;;;17.92;5.05;;;23.20;99.10;;;;;;4916158;29;20028;-69
2022/03/19 05:21:31;;;;;;;20.00;5.60;;;23.20;99.20;;;;;;4916276;29;20036;-72
2022/03/19 05:23:58;;;;;;;16.02;4.35;;;23.10;99.30;;;;;;4915941;29;20078;-72
2022/03/19 05:26:26;;;;;;;19.77;4.30;;;23.20;99.40;;;;;;4915697;29;20032;-70
2022/03/19 05:28:55;;;;;;;16.40;4.47;;;23.20;99.30;;;;;;4915488;29;20024;-70
2022/03/19 05:31:22;;;;;;;19.17;3.25;;;23.20;99.40;;;;;;4915651;29;20036;-71
2022/03/19 05:36:35;;;;;;;16.27;2.75;;;23.10;99.20;;;;;;4915926;29;20030;-70
2022/03/19 05:39:02;;;;;;;15.40;3.10;;;23.00;99.30;;;;;;4920269;29;20032;-73
2022/03/19 05:41:30;;;;;;;16.30;3.08;;;23.10;99.80;;;;;;4920295;29;20024;-74
2022/03/19 05:43:58;;;;;;;14.40;4.07;;;23.30;99.70;;;;;;4927192;29;20035;-74
2022/03/19 05:46:25;;;;;;;15.25;3.33;;;23.80;99.10;;;;;;4923414;29;20047;-72
2022/03/19 05:48:52;;;;;;;12.00;3.35;;;24.60;97.50;;;;;;4919533;29;20548;-72
2022/03/19 05:51:20;;;;;;;20.67;2.92;;;25.60;96.60;;;;;;4922771;29;20035;-70
2022/03/19 05:53:47;;;;;;;12.38;2.92;;;26.20;95.20;;;;;;4922308;29;20072;-73
2022/03/19 05:56:16;;;;;;;15.57;2.80;;;26.10;94.80;;;;;;4903775;29;20029;-71
2022/03/19 05:58:43;;;;;;;14.23;2.72;;;25.90;95.10;;;;;;4924175;29;20027;-72
2022/03/19 06:01:12;;;;;;;12.00;1.95;;;25.70;95.60;;;;;;4922125;29;20031;-74
2022/03/19 06:03:39;;;;;;;17.80;2.92;;;25.70;95.40;;;;;;4909819;29;20032;-72
2022/03/19 06:06:07;;;;;;;14.23;3.35;;;26.20;95.00;;;;;;4924025;29;20119;-71
2022/03/19 06:08:34;;;;;;;12.88;2.72;;;26.60;94.10;;;;;;4923471;29;20020;-72
2022/03/19 06:11:01;;;;;;;13.88;2.92;;;26.80;93.70;;;;;;4918231;29;20111;-72
2022/03/19 06:13:29;;;;;;;22.60;3.90;;;27.00;93.30;;;;;;4920582;29;20016;-72
2022/03/19 06:15:56;;;;;;;16.45;3.05;;;27.00;93.10;;;;;;4919920;29;20434;-72
2022/03/19 06:18:23;;;;;;;18.75;3.65;;;26.80;92.90;;;;;;4919159;29;20080;-73
2022/03/19 06:20:51;;;;;;;13.48;2.75;;;26.90;93.30;;;;;;4921501;29;20437;-71
2022/03/19 06:26:40;;;;;;;12.23;2.58;;;26.20;93.70;;;;;;4924230;29;20119;-71
2022/03/19 06:29:07;;;;;;;16.25;2.83;;;25.70;94.50;;;;;;4923636;29;20024;-72
2022/03/19 06:31:35;;;;;;;13.95;2.90;;;25.60;94.50;;;;;;4922959;29;20056;-73
2022/03/19 06:34:02;;;;;;;14.20;3.38;;;25.20;94.50;;;;;;4922875;29;20054;-72
2022/03/19 06:39:15;;;;;;;12.88;2.75;;;24.50;95.80;;;;;;4925957;29;20018;-71
2022/03/19 06:41:42;;;;;;;18.33;6.78;;;24.20;96.60;;;;;;4925806;29;20020;-72
2022/03/19 06:44:10;;;;;;;20.48;6.60;;;23.90;97.20;;;;;;4924971;29;20020;-71
2022/03/19 06:46:37;;;;;;;16.48;3.58;;;23.70;97.30;;;;;;4925084;29;20122;-73
2022/03/19 06:49:05;;;;;;;19.42;3.20;;;23.50;97.40;;;;;;4925753;29;20035;-72
2022/03/19 06:51:32;;;;;;;15.75;3.13;;;23.30;98.00;;;;;;4926151;29;20497;-74
2022/03/19 06:54:00;;;;;;;15.25;2.72;;;23.40;98.20;;;;;;4927171;29;20098;-73
2022/03/19 06:56:27;;;;;;;15.95;3.30;;;23.70;98.60;;;;;;4925890;29;20063;-70
2022/03/19 06:58:54;;;;;;;19.23;6.18;;;23.90;97.30;;;;;;4925971;29;20031;-70
2022/03/19 07:01:22;;;;;;;18.63;5.13;;;23.90;97.30;;;;;;4927813;29;20024;-68
2022/03/19 07:03:49;;;;;;;18.40;4.97;;;23.80;97.40;;;;;;4907653;29;20444;-73
2022/03/19 07:06:18;;;;;;;19.13;4.05;;;23.90;97.20;;;;;;4927393;29;20022;-71
2022/03/19 07:08:45;;;;;;;12.45;3.83;;;23.80;97.10;;;;;;4926110;29;20012;-71
2022/03/19 07:11:13;;;;;;;17.30;4.68;;;23.60;97.20;;;;;;4925805;29;20031;-71
2022/03/19 07:13:42;;;;;;;20.27;5.68;;;23.40;97.50;;;;;;4927353;29;20023;-70
2022/03/19 07:16:09;;;;;;;19.30;6.78;;;23.30;98.00;;;;;;4909251;29;20056;-71
2022/03/19 07:18:36;;;;;;;26.45;7.70;;;23.20;98.50;;;;;;4925056;29;20024;-72
2022/03/19 07:21:04;;;;;;;19.50;5.00;;;23.20;98.40;;;;;;4926877;29;20358;-72
2022/03/19 07:23:31;;;;;;;21.00;5.25;;;23.10;98.40;;;;;;4909488;29;20024;-71
2022/03/19 07:25:59;;;;;;;16.23;4.63;;;23.00;98.60;;;;;;4925212;29;20472;-70
2022/03/19 07:28:27;;;;;;;17.20;6.05;;;22.90;98.70;;;;;;4926290;29;20023;-74
2022/03/19 07:30:56;;;;;;;19.40;5.47;;;22.70;98.90;;;;;;4926587;29;20032;-72
2022/03/19 07:33:24;;;;;;;19.27;4.60;;;22.60;99.10;;;;;;4925010;29;20126;-72
2022/03/19 07:35:51;;;;;;;17.77;3.45;;;22.50;99.00;;;;;;4908431;29;20028;-70
2022/03/19 07:38:19;;;;;;;13.13;3.20;;;22.40;99.00;;;;;;4909888;29;20015;-74
2022/03/19 07:43:32;;;;;;;17.33;3.55;;;22.20;99.20;;;;;;4925885;29;20072;-73
2022/03/19 07:45:59;;;;;;;12.30;2.97;;;22.10;99.60;;;;;;4924143;29;20027;-72
2022/03/19 07:48:26;;;;;;;19.17;5.90;;;22.00;99.80;;;;;;4924244;29;20388;-73
2022/03/19 07:50:54;;;;;;;18.75;4.93;;;21.90;99.90;;;;;;4924770;29;20028;-71
2022/03/19 07:53:21;;;;;;;21.30;5.40;;;21.90;99.90;;;;;;4924746;29;20052;-72
2022/03/19 07:55:53;;;;;;;16.98;3.70;;;21.80;99.90;;;;;;4925401;29;20032;-71
2022/03/19 07:58:20;;;;;;;18.98;4.70;;;21.80;99.90;;;;;;4909225;29;20020;-72
2022/03/19 08:00:48;;;;;;;17.65;4.57;;;21.70;99.90;;;;;;4908458;29;20028;-72
2022/03/19 08:03:15;;;;;;;18.58;5.75;;;21.70;99.90;;;;;;4924671;29;20048;-73
2022/03/19 08:05:43;;;;;;;17.23;4.40;;;21.70;99.90;;;;;;4926455;29;20044;-71
2022/03/19 08:08:11;;;;;;;19.73;6.03;;;21.70;99.90;;;;;;4926002;29;20035;-72
2022/03/19 08:10:39;;;;;;;16.83;4.63;;;21.70;99.90;;;;;;4925429;29;20392;-71
2022/03/19 08:13:09;;;;;;;15.65;4.45;;;21.70;99.90;;;;;;4924841;29;20052;-73
2022/03/19 08:15:39;;;;;;;16.02;5.25;;;21.60;99.90;;;;;;4924153;29;20681;-72
2022/03/19 08:18:06;;;;;;;20.05;5.22;;;21.60;99.90;;;;;;4908327;29;20016;-72
2022/03/19 08:20:33;;;;;;;17.35;3.00;;;21.50;99.90;;;;;;4925778;29;20434;-74
2022/03/19 08:23:01;;;;;;;20.95;5.43;;;21.40;99.90;;;;;;4926430;29;20520;-73
2022/03/19 08:25:29;;;;;;;16.80;4.07;;;21.40;99.90;;;;;;4935316;29;20039;-75
2022/03/19 08:27:57;;;;;;;15.25;3.80;;;21.30;99.90;;;;;;4935604;29;20377;-72
2022/03/19 08:30:24;;;;;;;15.23;4.22;;;21.30;99.90;;;;;;4918625;29;20032;-71
2022/03/19 08:32:51;;;;;;;15.55;4.22;;;21.30;99.90;;;;;;4935505;29;20052;-70
2022/03/19 08:35:19;;;;;;;19.70;4.32;;;21.30;99.90;;;;;;4934513;29;20016;-72
2022/03/19 08:37:47;;;;;;;21.80;4.15;;;21.30;99.90;;;;;;4935167;29;20031;-72
2022/03/19 08:40:18;;;;;;;14.73;4.10;;;21.30;99.90;;;;;;4935402;29;20388;-71
2022/03/19 08:42:53;;;;;;;19.33;4.78;;;21.20;99.90;;;;;;4935420;29;20626;-71
2022/03/19 08:45:22;;;;;;;17.52;5.63;;;21.20;99.90;;;;;;4924162;29;20039;-73
2022/03/19 08:47:50;;;;;;;21.98;5.20;;;21.10;99.90;;;;;;4906705;29;20499;-73
2022/03/19 08:50:18;;;;;;;19.25;5.10;;;21.10;99.90;;;;;;4923461;29;20084;-71
2022/03/19 08:52:45;;;;;;;16.35;4.07;;;21.10;99.90;;;;;;4924421;29;20495;-72
2022/03/19 08:55:13;;;;;;;17.67;3.22;;;21.00;99.90;;;;;;4925357;29;20031;-72
2022/03/19 08:57:40;;;;;;;14.20;3.38;;;21.00;99.90;;;;;;4923886;29;20425;-71
2022/03/19 09:00:08;;;;;;;20.50;3.42;;;21.00;99.90;;;;;;4924629;29;20485;-74
2022/03/19 09:02:36;;;;;;;20.83;5.60;;;21.10;99.90;;;;;;4924650;29;20079;-71
2022/03/19 09:05:03;;;;;;;19.55;4.13;;;21.10;99.90;;;;;;4923072;29;20019;-73
2022/03/19 09:07:31;;;;;;;14.38;3.45;;;21.10;99.90;;;;;;4923440;29;20043;-73
2022/03/19 09:09:58;;;;;;;16.92;3.45;;;21.10;99.90;;;;;;4924335;29;20182;-71
2022/03/19 09:12:26;;;;;;;16.75;4.25;;;21.10;99.90;;;;;;4925308;29;20024;-72
2022/03/19 09:14:54;;;;;;;16.15;4.00;;;21.10;99.80;;;;;;4923799;29;20020;-73
2022/03/19 09:17:22;;;;;;;18.95;4.10;;;21.20;99.20;;;;;;4923707;29;20016;-73
2022/03/19 09:19:49;;;;;;;16.63;2.92;;;21.20;99.30;;;;;;4924948;29;20045;-73
2022/03/19 09:22:16;;;;;;;16.98;4.50;;;21.20;99.60;;;;;;4924173;29;20020;-73
2022/03/19 09:24:43;;;;;;;17.15;4.72;;;21.20;99.50;;;;;;4923616;29;20024;-73
2022/03/19 09:27:11;;;;;;;16.33;4.30;;;21.20;99.80;;;;;;4922714;29;20060;-73
2022/03/19 09:29:38;;;;;;;20.92;5.13;;;21.20;99.80;;;;;;4924072;29;20015;-73
2022/03/19 09:32:07;;;;;;;22.83;4.72;;;21.20;99.90;;;;;;4925034;29;20047;-78
2022/03/19 09:34:34;;;;;;;22.55;5.72;;;21.20;99.90;;;;;;4923940;29;20029;-75
2022/03/19 09:37:02;;;;;;;21.30;4.72;;;21.30;99.90;;;;;;4924015;29;20019;-77
2022/03/19 09:39:29;;;;;;;23.20;5.88;;;21.30;99.90;;;;;;4925222;29;20452;-73
2022/03/19 09:41:56;;;;;;;13.90;4.72;;;21.30;99.90;;;;;;4907084;29;20029;-76
2022/03/19 09:44:27;;;;;;;18.05;3.70;;;21.40;99.90;;;;;;4923350;29;20020;-75
2022/03/19 09:46:55;;;;;;;13.90;3.53;;;21.30;99.90;;;;;;4906606;29;20397;-75
2022/03/19 09:49:22;;;;;;;12.13;3.13;;;21.30;99.90;;;;;;4923191;29;20020;-75
2022/03/19 09:51:57;;;;;;;19.80;3.70;;;21.30;99.90;;;;;;4924742;29;20087;-74
2022/03/19 09:54:24;;;;;;;16.00;3.78;;;21.30;99.90;;;;;;4906985;29;20548;-76
2022/03/19 09:56:52;;;;;;;16.30;3.10;;;21.30;99.90;;;;;;4923224;29;20060;-74
2022/03/19 09:59:22;;;;;;;19.27;3.05;;;21.40;99.90;;;;;;4923735;29;20016;-75
2022/03/19 10:01:51;;;;;;;19.13;3.45;;;21.30;99.90;;;;;;4924625;29;20144;-74
2022/03/19 10:04:20;;;;;;;13.88;3.53;;;21.30;99.90;;;;;;4922558;29;20012;-74
2022/03/19 10:09:48;;;;;;;17.48;3.28;;;21.30;99.90;;;;;;4924098;29;20131;-74
2022/03/19 10:12:21;;;;;;;18.17;4.05;;;21.20;99.90;;;;;;4926352;29;20040;-74
2022/03/19 10:14:51;;;;;;;;;;;21.20;99.90;;;;;;4926751;29;20375;-73
2022/03/19 10:17:35;;;;;;;18.95;3.47;;;21.20;99.90;;;;;;4927571;29;19907;-74
2022/03/19 10:20:07;;;;;;;23.77;3.50;;;21.20;99.90;;;;;;4928353;29;20028;-75
2022/03/19 10:22:34;;;;;;;14.20;3.50;;;21.20;99.90;;;;;;4926901;29;20024;-75
2022/03/19 10:25:10;;;;;;;15.10;4.13;;;21.10;99.90;;;;;;4926769;29;20024;-76
2022/03/19 10:27:40;;;;;;;14.18;3.67;;;21.10;99.90;;;;;;4927201;29;20024;-76
2022/03/19 10:30:21;;;;;;;13.32;3.70;;;21.10;99.90;;;;;;4926055;29;20171;-75
2022/03/19 10:32:54;;;;;;;14.70;2.70;;;21.10;99.90;;;;;;4926814;29;20559;-73
2022/03/19 10:35:32;;;;;;;16.98;3.97;;;21.10;99.90;;;;;;4927420;29;20020;-73
2022/03/19 10:38:05;;;;;;;18.98;2.88;;;21.00;99.90;;;;;;4918609;29;20126;-72
2022/03/19 10:40:41;;;;;;;14.95;2.53;;;21.00;99.90;;;;;;4928399;29;20024;-73
2022/03/19 10:43:10;;;;;;;14.18;2.65;;;21.10;99.90;;;;;;4926985;29;20024;-76
2022/03/19 10:45:48;;;;;;;14.68;3.33;;;21.00;99.90;;;;;;4911739;29;20044;-76
2022/03/19 10:48:27;;;;;;;19.50;3.35;;;21.00;99.90;;;;;;4919051;29;20084;-73
2022/03/19 10:50:55;;;;;;;10.60;2.40;;;21.10;99.90;;;;;;4925425;29;20024;-72
2022/03/19 10:53:25;;;;;;;17.27;3.00;;;21.10;99.90;;;;;;4927092;29;20361;-71
2022/03/19 10:55:53;;;;;;;16.60;3.17;;;21.10;99.90;;;;;;4927210;29;20374;-74
2022/03/19 10:58:21;;;;;;;11.77;2.60;;;21.10;99.90;;;;;;4908974;29;20075;-74
2022/03/19 11:00:51;;;;;;;12.65;3.20;;;21.10;99.90;;;;;;4908205;29;20497;-74
2022/03/19 11:03:29;;;;;;;14.93;3.38;;;21.20;99.90;;;;;;4925141;29;20028;-73
2022/03/19 11:06:05;;;;;;;14.82;3.83;;;21.20;99.90;;;;;;4925501;29;20031;-73
2022/03/19 11:08:40;;;;;;;12.40;2.50;;;21.20;99.90;;;;;;4925298;29;20489;-72
2022/03/19 11:11:14;;;;;;;14.95;2.53;;;21.10;99.90;;;;;;4926113;29;20036;-72
2022/03/19 11:13:46;;;;;;;17.63;2.88;;;21.10;99.90;;;;;;4925594;29;20021;-71
2022/03/19 11:16:14;;;;;;;31.85;6.22;;;21.00;99.90;;;;;;4925095;29;20385;-70
2022/03/19 11:18:43;;;;;;;15.45;3.13;;;20.90;99.90;;;;;;4926493;29;20038;-73
2022/03/19 11:21:11;;;;;;;16.52;2.85;;;20.90;99.90;;;;;;4926833;29;20055;-73
2022/03/19 11:23:58;;;;;;;14.73;3.15;;;20.90;99.90;;;;;;4925032;29;20139;-73
2022/03/19 11:26:29;;;;;;;18.08;3.10;;;20.80;99.90;;;;;;4925815;29;20111;-70
2022/03/19 11:28:57;;;;;;;14.93;3.83;;;20.70;99.90;;;;;;4924867;29;20023;-72
2022/03/19 11:31:29;;;;;;;18.40;4.10;;;20.70;99.90;;;;;;4925885;29;20063;-73
2022/03/19 11:34:12;;;;;;;15.40;4.70;;;20.60;99.90;;;;;;4926659;29;20040;-72
2022/03/19 11:37:00;;;;;;;13.02;3.13;;;20.50;99.90;;;;;;4925195;29;20262;-72
2022/03/19 11:39:28;;;;;;;23.00;3.92;;;20.50;99.90;;;;;;4926067;29;20013;-72
2022/03/19 11:41:59;;;;;;;22.02;4.65;;;20.50;99.90;;;;;;4924925;29;20054;-72
2022/03/19 11:44:28;;;;;;;13.20;4.28;;;20.50;99.90;;;;;;4925602;29;20020;-73
2022/03/19 11:47:10;;;;;;;16.00;3.55;;;20.50;99.90;;;;;;4926316;29;20091;-72
2022/03/19 11:49:52;;;;;;;15.15;2.90;;;20.50;99.90;;;;;;4924612;29;20397;-72
2022/03/19 11:52:26;;;;;;;17.02;3.33;;;20.50;99.90;;;;;;4925101;29;20040;-71
2022/03/19 11:55:05;;;;;;;13.50;4.22;;;20.50;99.90;;;;;;4924673;29;20478;-74
2022/03/19 11:57:47;;;;;;;20.17;4.13;;;20.40;99.90;;;;;;4924401;29;20432;-74
2022/03/19 12:00:15;;;;;;;;;;;20.50;99.90;;;;;;4926802;29;20484;-74
2022/03/19 12:03:08;;;;;;;19.95;3.67;;;20.40;99.90;;;;;;4925187;29;20006;-71
2022/03/19 12:05:39;;;;;;;14.98;3.78;;;20.40;99.90;;;;;;4926300;29;20020;-74
2022/03/19 12:08:21;;;;;;;18.40;4.70;;;20.30;99.90;;;;;;4926322;29;20023;-74
2022/03/19 12:11:03;;;;;;;14.30;3.00;;;20.20;99.90;;;;;;4916397;29;20083;-72
2022/03/19 12:13:30;;;;;;;12.75;2.95;;;20.20;99.90;;;;;;4898499;29;20095;-73
2022/03/19 12:15:59;;;;;;;16.75;3.47;;;20.20;99.90;;;;;;4899015;29;20028;-71
2022/03/19 12:18:34;;;;;;;18.65;3.33;;;20.10;99.90;;;;;;4900094;29;20115;-73
2022/03/19 12:21:09;;;;;;;16.00;3.63;;;20.00;99.90;;;;;;4900328;29;20031;-73
2022/03/19 12:23:43;;;;;;;14.63;3.80;;;20.00;99.90;;;;;;4917240;29;20508;-71
2022/03/19 12:26:13;;;;;;;21.75;4.32;;;19.90;99.90;;;;;;4917101;29;20329;-74
2022/03/19 12:28:42;;;;;;;13.05;2.83;;;20.00;99.90;;;;;;4916637;29;20084;-70
2022/03/19 12:31:14;;;;;;;12.98;4.00;;;20.00;99.90;;;;;;4916893;29;20032;-71
2022/03/19 12:33:43;;;;;;;11.80;3.17;;;19.90;99.90;;;;;;4916048;29;20091;-72
2022/03/19 12:36:19;;;;;;;9.27;2.67;;;19.90;99.90;;;;;;4916588;29;20027;-72
2022/03/19 12:38:50;;;;;;;14.18;3.33;;;20.00;99.90;;;;;;4918512;29;20012;-73
2022/03/19 12:41:29;;;;;;;14.73;3.60;;;20.00;99.90;;;;;;4916333;29;20122;-72
2022/03/19 12:44:01;;;;;;;15.73;4.57;;;20.00;99.90;;;;;;4923742;29;20087;-73
2022/03/19 12:46:35;;;;;;;;;;;20.00;99.90;;;;;;4910934;29;20032;-74
2022/03/19 12:49:08;;;;;;;19.77;3.50;;;19.90;99.90;;;;;;4916597;29;19971;-75
2022/03/19 12:51:39;;;;;;;17.38;3.97;;;19.90;99.90;;;;;;4916398;29;20028;-75
2022/03/19 12:54:28;;;;;;;12.52;3.33;;;19.80;99.90;;;;;;4899131;29;20032;-73
2022/03/19 12:57:06;;;;;;;19.98;4.15;;;19.80;99.90;;;;;;4916355;29;20036;-73
2022/03/19 12:59:34;;;;;;;14.40;3.75;;;19.80;99.90;;;;;;4915954;29;20028;-75
2022/03/19 13:02:01;;;;;;;15.18;4.20;;;19.80;99.90;;;;;;4916033;29;20020;-73
2022/03/19 13:04:30;;;;;;;14.60;3.05;;;19.80;99.90;;;;;;4915941;29;20112;-74
2022/03/19 13:06:59;;;;;;;12.60;4.45;;;19.80;99.90;;;;;;4916203;29;20032;-74